Time;durP1;ratioP1;P1;durP2;ratioP2;P2;SDS_P1;SDS_P2;PMS_P1;PMS_P2;Temp;Humidity;BMP_temperature;BMP_pressure;BME280_temperature;BME280_humidity;BME280_pressure;Samples;Min_cycle;Max_cycle;Signal;HPM_P1;HPM_P2
2022/04/14 00:01:04;;;;;;;6.90;3.92;;;13.10;94.80;;;12.25;69.67;97287.88;4999730;28;20437;-76
2022/04/14 00:03:29;;;;;;;10.40;4.80;;;13.10;94.60;;;12.28;69.75;97286.53;4999109;28;20463;-75
2022/04/14 00:05:55;;;;;;;9.07;4.18;;;13.10;94.60;;;12.23;70.42;97289.97;4998664;28;20491;-75
2022/04/14 00:08:21;;;;;;;8.52;4.32;;;13.10;95.10;;;12.22;70.79;97287.59;5000198;28;20788;-75
2022/04/14 00:10:49;;;;;;;10.90;4.95;;;13.10;95.60;;;12.20;70.30;97289.69;4998054;28;20406;-75
2022/04/14 00:13:16;;;;;;;10.77;5.18;;;13.10;95.30;;;12.23;69.22;97287.31;4998685;28;20405;-76
2022/04/14 00:15:42;;;;;;;8.85;4.38;;;13.10;94.70;;;12.17;69.84;97290.25;5000056;28;20412;-75
2022/04/14 00:18:08;;;;;;;11.75;5.47;;;13.00;95.00;;;12.22;67.42;97290.22;4993087;28;20934;-75
2022/04/14 00:20:34;;;;;;;8.77;4.75;;;13.10;94.10;;;12.21;67.25;97299.25;5001219;28;20430;-76
2022/04/14 00:23:00;;;;;;;12.05;4.93;;;13.00;93.70;;;12.15;68.62;97298.47;5000113;28;20403;-76
2022/04/14 00:25:26;;;;;;;9.73;4.97;;;13.00;93.90;;;12.10;69.18;97295.81;4998287;28;20428;-76
2022/04/14 00:27:53;;;;;;;10.10;4.85;;;13.00;94.30;;;12.09;69.60;97288.09;4998961;28;20907;-75
2022/04/14 00:30:19;;;;;;;13.25;5.93;;;13.00;94.90;;;12.07;68.08;97298.16;5012221;28;20508;-75
2022/04/14 00:32:46;;;;;;;9.23;4.85;;;12.90;93.90;;;12.06;68.80;97296.56;4999714;28;20401;-75
2022/04/14 00:35:12;;;;;;;7.28;4.47;;;12.90;94.30;;;12.02;69.84;97293.66;4998746;28;20449;-75
2022/04/14 00:37:39;;;;;;;8.68;4.97;;;12.90;94.90;;;12.02;67.94;97299.75;4998015;28;20483;-75
2022/04/14 00:40:06;;;;;;;12.73;5.05;;;12.90;93.80;;;12.01;67.61;97298.16;4994865;28;20421;-75
2022/04/14 00:42:32;;;;;;;10.73;5.03;;;12.90;93.50;;;11.97;67.73;97299.72;4998464;28;20894;-75
2022/04/14 00:45:00;;;;;;;8.32;4.60;;;12.80;93.40;;;11.92;68.96;97302.38;4999531;28;20484;-75
2022/04/14 00:47:26;;;;;;;9.95;4.45;;;12.80;94.10;;;11.89;68.95;97304.75;4995361;28;20403;-75
2022/04/14 00:49:52;;;;;;;11.25;4.70;;;12.80;94.30;;;11.89;68.44;97296.78;4998096;28;20428;-75
2022/04/14 00:52:22;;;;;;;7.78;4.72;;;12.70;94.40;;;11.89;67.71;97310.06;4997026;28;20415;-75
2022/04/14 00:54:48;;;;;;;7.55;3.88;;;12.70;93.70;;;11.82;68.56;97310.28;4995679;28;20444;-75
2022/04/14 00:57:14;;;;;;;10.30;4.50;;;12.70;94.00;;;11.78;68.52;97311.09;4998101;28;20397;-75
2022/04/14 00:59:41;;;;;;;12.55;4.68;;;12.70;94.00;;;11.81;68.46;97310.56;4999127;28;20504;-76
2022/04/14 01:02:09;;;;;;;16.02;4.30;;;12.60;94.20;;;11.76;67.08;97313.19;4997391;28;20407;-75
2022/04/14 01:04:35;;;;;;;8.35;4.03;;;12.60;93.20;;;11.77;67.72;97307.63;4997949;28;20401;-75
2022/04/14 01:07:05;;;;;;;7.55;3.50;;;12.60;93.80;;;11.69;69.12;97307.31;4999135;28;20430;-75
2022/04/14 01:09:31;;;;;;;13.75;4.65;;;12.60;94.40;;;11.77;68.51;97312.13;4997976;28;20395;-75
2022/04/14 01:11:57;;;;;;;10.93;3.92;;;12.60;94.40;;;11.71;68.77;97310.50;4997247;28;20401;-75
2022/04/14 01:14:28;;;;;;;10.10;3.87;;;12.60;94.50;;;11.67;68.99;97309.41;4999336;28;20401;-75
2022/04/14 01:16:56;;;;;;;12.70;3.80;;;12.50;94.50;;;11.66;68.51;97308.59;4999448;28;20908;-75
2022/04/14 01:19:23;;;;;;;9.68;4.00;;;12.50;94.30;;;11.66;68.46;97308.59;4998915;28;20433;-75
2022/04/14 01:22:00;;;;;;;12.10;3.95;;;12.50;94.60;;;11.65;68.73;97315.00;4997504;28;20414;-75
2022/04/14 01:24:28;;;;;;;8.88;3.88;;;12.50;94.60;;;11.59;69.31;97316.00;4994778;28;20403;-75
2022/04/14 01:26:54;;;;;;;7.95;3.78;;;12.40;94.60;;;11.55;70.16;97312.28;4997903;28;20411;-75
2022/04/14 01:29:22;;;;;;;9.55;4.13;;;12.40;95.20;;;11.56;70.16;97314.69;4998091;28;20909;-75
2022/04/14 01:31:49;;;;;;;9.10;3.50;;;12.40;95.40;;;11.55;69.76;97315.75;4996935;28;20406;-75
2022/04/14 01:34:15;;;;;;;9.30;4.25;;;12.40;95.50;;;11.51;69.88;97316.50;4997671;28;20429;-75
2022/04/14 01:36:40;;;;;;;12.90;3.60;;;12.40;95.30;;;11.53;70.03;97320.50;4998860;28;20490;-75
2022/04/14 01:39:08;;;;;;;7.78;3.25;;;12.40;95.40;;;11.44;70.92;97318.59;4996936;28;20411;-75
2022/04/14 01:41:35;;;;;;;6.35;3.40;;;12.30;95.80;;;11.41;71.07;97322.56;4997109;28;20483;-75
2022/04/14 01:44:01;;;;;;;8.23;3.65;;;12.30;95.90;;;11.39;70.62;97323.88;5013861;28;20425;-75
2022/04/14 01:46:27;;;;;;;8.90;3.63;;;12.30;95.70;;;11.36;71.19;97337.63;4996926;28;20403;-75
2022/04/14 01:48:53;;;;;;;9.30;3.72;;;12.30;96.10;;;11.41;69.72;97341.13;4997648;28;20885;-75
2022/04/14 01:51:19;;;;;;;17.00;4.70;;;12.20;95.80;;;11.34;70.48;97339.75;4998156;28;20399;-74
2022/04/14 01:53:45;;;;;;;13.18;4.45;;;12.20;95.90;;;11.34;69.69;97339.75;4994138;28;20459;-75
2022/04/14 01:56:11;;;;;;;10.57;3.67;;;12.20;95.60;;;11.30;69.21;97338.66;4997878;28;20454;-75
2022/04/14 01:58:39;;;;;;;10.38;3.67;;;12.10;95.10;;;11.24;70.46;97335.19;4998214;28;20399;-75
2022/04/14 02:01:05;;;;;;;11.23;4.25;;;12.10;95.60;;;11.23;69.86;97338.88;4995906;28;20426;-75
2022/04/14 02:03:30;;;;;;;19.45;4.53;;;12.10;95.20;;;11.24;69.07;97340.50;4997649;28;20894;-75
2022/04/14 02:05:56;;;;;;;10.07;3.60;;;12.10;94.80;;;11.23;70.22;97344.19;4998042;28;20409;-75
2022/04/14 02:08:22;;;;;;;11.57;4.53;;;12.10;95.50;;;11.29;69.67;97345.81;4996373;28;20924;-75
2022/04/14 02:10:48;;;;;;;13.90;4.30;;;12.20;95.10;;;11.29;68.79;97347.66;4997496;28;20401;-75
2022/04/14 02:13:14;;;;;;;9.30;3.70;;;12.20;94.60;;;11.23;70.40;97345.00;4997650;28;20403;-75
2022/04/14 02:15:41;;;;;;;19.38;4.35;;;12.10;95.40;;;11.24;70.26;97343.94;4996292;28;20461;-75
2022/04/14 02:18:07;;;;;;;12.73;4.40;;;12.10;95.60;;;11.23;70.90;97352.94;4994345;28;20883;-75
2022/04/14 02:20:33;;;;;;;12.70;4.25;;;12.10;96.00;;;11.23;70.96;97355.59;4996571;28;20550;-75
2022/04/14 02:22:59;;;;;;;8.80;4.20;;;12.10;96.00;;;11.20;72.19;97350.78;4998171;28;20904;-75
2022/04/14 02:25:25;;;;;;;9.80;4.50;;;12.10;96.90;;;11.20;72.58;97355.31;4996217;28;20403;-75
2022/04/14 02:27:51;;;;;;;11.15;4.65;;;12.10;97.40;;;11.25;71.40;97357.97;4997223;28;20401;-75
2022/04/14 02:30:17;;;;;;;13.00;4.53;;;12.10;96.70;;;11.24;71.29;97367.78;4997177;28;20411;-75
2022/04/14 02:32:45;;;;;;;14.75;4.60;;;12.10;96.90;;;11.27;70.86;97368.34;4996153;28;20411;-75
2022/04/14 02:35:11;;;;;;;12.43;4.33;;;12.10;96.60;;;11.22;72.44;97367.22;4997486;28;20416;-75
2022/04/14 02:37:37;;;;;;;9.07;4.25;;;12.10;97.10;;;11.20;72.42;97363.25;4997701;28;20414;-75
2022/04/14 02:40:04;;;;;;;17.33;5.18;;;12.10;97.20;;;11.21;73.27;97367.47;4995818;28;20511;-75
2022/04/14 02:42:30;;;;;;;11.52;4.75;;;12.10;97.90;;;11.23;73.10;97360.88;4997307;28;20409;-75
2022/04/14 02:44:56;;;;;;;13.02;5.00;;;12.10;98.20;;;11.29;71.57;97366.22;4997495;28;20399;-75
2022/04/14 02:47:22;;;;;;;12.93;5.40;;;12.10;97.20;;;11.21;73.57;97362.97;4996041;28;20764;-75
2022/04/14 02:49:50;;;;;;;19.23;6.07;;;12.10;98.20;;;11.25;71.92;97365.94;4997482;28;20406;-75
2022/04/14 02:52:16;;;;;;;10.02;4.60;;;12.10;97.60;;;11.24;72.75;97377.59;4996882;28;20407;-75
2022/04/14 02:54:42;;;;;;;14.35;5.25;;;12.10;97.70;;;11.22;72.89;97372.53;4995794;28;20411;-75
2022/04/14 02:57:09;;;;;;;15.38;5.90;;;12.10;98.00;;;11.17;72.90;97369.84;4997638;28;20989;-76
2022/04/14 02:59:36;;;;;;;12.77;4.97;;;12.10;97.80;;;11.16;73.45;97370.91;4995726;28;20454;-75
2022/04/14 03:02:04;;;;;;;10.77;5.22;;;12.10;98.30;;;11.16;73.42;97370.09;4995020;28;20407;-75
2022/04/14 03:04:30;;;;;;;13.47;5.47;;;12.00;98.20;;;11.16;72.92;97370.91;5011606;28;20523;-75
2022/04/14 03:06:58;;;;;;;11.20;4.97;;;12.00;97.80;;;11.11;72.77;97372.72;4996243;28;20402;-75
2022/04/14 03:09:24;;;;;;;14.98;4.80;;;12.00;97.80;;;11.08;73.37;97374.03;4994794;28;20405;-75
2022/04/14 03:11:50;;;;;;;13.15;5.97;;;11.90;98.20;;;11.03;74.18;97379.28;4996221;28;21008;-74
2022/04/14 03:14:16;;;;;;;18.55;7.07;;;11.90;98.70;;;11.04;74.60;97372.94;4998325;28;20816;-75
2022/04/14 03:16:42;;;;;;;20.23;7.22;;;11.90;99.30;;;11.01;74.92;97386.69;4998966;28;20761;-75
2022/04/14 03:19:08;;;;;;;12.48;6.07;;;11.90;99.40;;;10.98;75.13;97381.09;5000703;28;20488;-75
2022/04/14 03:21:34;;;;;;;26.93;11.47;;;11.90;99.60;;;11.02;75.15;97376.91;4999549;28;20896;-74
2022/04/14 03:24:01;;;;;;;18.30;8.40;;;11.80;99.90;;;10.98;75.33;97386.38;4999158;28;20413;-75
2022/04/14 03:26:27;;;;;;;24.93;11.63;;;11.80;99.90;;;11.02;75.44;97380.34;4996516;28;20917;-75
2022/04/14 03:28:53;;;;;;;26.77;10.60;;;11.80;99.90;;;11.11;74.80;97385.97;4999522;28;20492;-74
2022/04/14 03:31:19;;;;;;;23.58;11.65;;;11.90;99.90;;;11.12;75.71;97374.34;4999883;28;20414;-74
2022/04/14 03:33:45;;;;;;;25.73;13.82;;;11.90;99.90;;;11.19;76.50;97381.00;4998762;28;20494;-74
2022/04/14 03:36:10;;;;;;;32.87;16.00;;;12.00;99.90;;;11.36;76.46;97387.97;5000106;28;20420;-75
2022/04/14 03:38:36;;;;;;;27.63;14.15;;;12.20;99.90;;;11.39;75.84;97387.47;4999918;28;20422;-75
2022/04/14 03:41:05;;;;;;;19.38;10.68;;;12.20;99.90;;;11.36;76.60;97382.69;4998176;28;20418;-75
2022/04/14 03:43:31;;;;;;;19.73;11.40;;;12.20;99.90;;;11.35;76.54;97397.78;5000013;28;20516;-75
2022/04/14 03:45:57;;;;;;;21.25;12.32;;;12.20;99.90;;;11.30;76.39;97387.16;5000108;28;20407;-75
2022/04/14 03:48:23;;;;;;;26.60;14.38;;;12.20;99.90;;;11.27;76.43;97394.84;4998545;28;20975;-74
2022/04/14 03:50:49;;;;;;;23.00;12.40;;;12.10;99.90;;;11.21;76.74;97392.13;4999672;28;20437;-75
2022/04/14 03:53:17;;;;;;;23.63;13.45;;;12.10;99.90;;;11.16;77.26;97392.09;4999646;28;20480;-74
2022/04/14 03:55:43;;;;;;;29.67;14.10;;;12.00;99.90;;;11.12;76.96;97391.03;5013356;28;20814;-75
2022/04/14 03:58:10;;;;;;;37.38;16.25;;;12.00;99.90;;;11.03;76.84;97386.44;5000106;28;20421;-75
2022/04/14 04:00:36;;;;;;;26.02;13.00;;;11.90;99.90;;;10.98;77.37;97391.69;4998966;28;20572;-75
2022/04/14 04:03:02;;;;;;;36.08;15.25;;;11.80;99.90;;;10.93;77.72;97395.09;4998159;28;20941;-75
2022/04/14 04:05:28;;;;;;;23.80;14.07;;;11.80;99.90;;;10.89;78.14;97396.66;5000251;28;20515;-75
2022/04/14 04:07:54;;;;;;;26.25;13.93;;;11.80;99.90;;;10.81;78.59;97397.94;4999380;28;20407;-75
2022/04/14 04:10:20;;;;;;;30.23;17.15;;;11.70;99.90;;;10.86;77.63;97405.09;4997990;28;20894;-75
2022/04/14 04:12:45;;;;;;;23.17;14.07;;;11.70;99.90;;;10.78;78.62;97406.38;5000227;28;20409;-75
2022/04/14 04:15:13;;;;;;;24.50;14.43;;;11.60;99.90;;;10.74;78.34;97399.19;4998955;28;20417;-74
2022/04/14 04:17:39;;;;;;;25.17;14.48;;;11.60;99.90;;;10.69;78.59;97402.56;4997078;28;20905;-73
2022/04/14 04:20:06;;;;;;;33.20;15.77;;;11.60;99.90;;;10.64;78.80;97401.72;4999575;28;20409;-76
2022/04/14 04:22:35;;;;;;;28.08;16.70;;;11.50;99.90;;;10.59;78.27;97402.50;4998632;28;20438;-75
2022/04/14 04:25:01;;;;;;;27.57;14.73;;;11.50;99.90;;;10.53;79.02;97406.13;4997848;28;20887;-75
2022/04/14 04:27:27;;;;;;;29.80;16.13;;;11.40;99.90;;;10.46;79.21;97403.66;4994058;28;20422;-76
2022/04/14 04:29:56;;;;;;;32.50;16.65;;;11.40;99.90;;;10.44;79.13;97405.00;5018609;22;20413;-77
2022/04/14 04:32:23;;;;;;;33.83;17.45;;;11.30;99.90;;;10.40;79.14;97411.81;5061777;28;20754;-77
2022/04/14 04:34:49;;;;;;;26.38;16.17;;;11.30;99.90;;;10.37;79.31;97410.47;5064165;28;20892;-78
2022/04/14 04:37:15;;;;;;;33.10;19.17;;;11.30;99.90;;;10.33;79.54;97417.31;5064359;28;20485;-78
2022/04/14 04:39:41;;;;;;;27.35;16.98;;;11.20;99.90;;;10.28;80.11;97413.81;5073198;28;20409;-78
2022/04/14 04:42:08;;;;;;;35.60;20.08;;;11.20;99.90;;;10.29;79.67;97416.22;5078542;28;20429;-79
2022/04/14 04:44:34;;;;;;;30.58;19.45;;;11.20;99.90;;;10.24;80.04;97420.63;5064415;28;20396;-80
2022/04/14 04:47:00;;;;;;;28.83;19.57;;;11.20;99.90;;;10.23;80.85;97425.13;5079413;28;20408;-78
2022/04/14 04:49:27;;;;;;;42.92;23.60;;;11.10;99.90;;;10.30;80.09;97419.66;5071620;28;20775;-78
2022/04/14 04:51:53;;;;;;;37.38;21.75;;;11.20;99.90;;;10.28;80.71;97419.91;5058607;28;20409;-78
2022/04/14 04:54:19;;;;;;;38.85;23.55;;;11.20;99.90;;;10.31;80.74;97422.03;5060058;28;20468;-79
2022/04/14 04:56:44;;;;;;;38.78;24.25;;;11.20;99.90;;;10.35;80.67;97419.69;5062751;28;20765;-79
2022/04/14 04:59:10;;;;;;;33.85;20.92;;;11.20;99.90;;;10.27;81.49;97420.94;5061693;28;20796;-79
2022/04/14 05:01:36;;;;;;;39.70;23.47;;;11.20;99.90;;;10.33;81.47;97435.03;5060953;28;20452;-79
2022/04/14 05:04:02;;;;;;;43.00;24.42;;;11.20;99.90;;;10.30;81.58;97438.94;5060050;28;20409;-78
2022/04/14 05:06:30;;;;;;;41.75;24.98;;;11.20;99.90;;;10.34;81.24;97444.56;5057529;28;20459;-79
2022/04/14 05:08:56;;;;;;;30.42;20.08;;;11.20;99.90;;;10.30;82.31;97446.88;5059653;28;20409;-78
2022/04/14 05:11:21;;;;;;;43.57;25.00;;;11.20;99.90;;;10.40;81.87;97441.72;5059714;28;21626;-79
2022/04/14 05:13:47;;;;;;;45.08;26.42;;;11.30;99.90;;;10.41;82.20;97451.25;5055212;28;20806;-79
2022/04/14 05:16:13;;;;;;;40.92;25.17;;;11.30;99.90;;;10.45;82.54;97454.19;5058909;28;20406;-78
2022/04/14 05:18:39;;;;;;;35.13;23.58;;;11.40;99.90;;;10.51;82.17;97455.88;5053671;28;20468;-78
2022/04/14 05:21:05;;;;;;;49.55;28.65;;;11.40;99.90;;;10.60;82.45;97454.34;5064693;28;20402;-79
2022/04/14 05:23:33;;;;;;;46.65;30.02;;;11.50;99.90;;;10.67;82.50;97460.28;5062685;28;20406;-78
2022/04/14 05:25:59;;;;;;;47.47;29.38;;;11.50;99.90;;;10.73;82.88;97461.94;5059353;28;20416;-79
2022/04/14 05:28:25;;;;;;;48.00;29.85;;;11.60;99.90;;;10.83;83.35;97466.50;5058272;28;20408;-78
2022/04/14 05:30:51;;;;;;;60.67;36.90;;;11.70;99.90;;;11.00;83.27;97467.19;5057779;28;20968;-79
2022/04/14 05:33:17;;;;;;;46.75;30.80;;;11.80;99.90;;;11.05;83.99;97469.88;5058978;28;20406;-79
2022/04/14 05:35:45;;;;;;;57.28;34.47;;;11.90;99.90;;;11.17;83.30;97477.69;5059216;28;20834;-78
2022/04/14 05:38:11;;;;;;;50.95;32.03;;;12.00;99.90;;;11.24;82.89;97481.72;5060352;28;20439;-78
2022/04/14 05:40:41;;;;;;;53.30;33.03;;;12.10;99.90;;;11.32;82.23;97479.66;5059973;28;20421;-79
2022/04/14 05:43:08;;;;;;;53.35;33.05;;;12.20;99.90;;;11.39;81.78;97482.91;5059091;28;20432;-79
2022/04/14 05:45:36;;;;;;;61.88;35.13;;;12.20;99.90;;;11.47;81.76;97487.72;5060268;28;20968;-79
2022/04/14 05:48:02;;;;;;;50.17;31.58;;;12.30;99.90;;;11.52;82.02;97485.09;5043109;28;20406;-83
2022/04/14 05:50:28;;;;;;;51.22;31.73;;;12.40;99.90;;;11.57;81.45;97485.97;5055957;28;20913;-80
2022/04/14 05:52:55;;;;;;;44.10;27.75;;;12.40;99.90;;;11.59;81.44;97490.97;5060129;28;20398;-81
2022/04/14 05:55:21;;;;;;;62.30;32.97;;;12.50;99.90;;;11.63;81.32;97486.78;5058142;28;20419;-79
2022/04/14 05:57:48;;;;;;;61.10;33.70;;;12.50;99.90;;;11.70;80.95;97486.56;5057308;28;20921;-79
2022/04/14 06:00:15;;;;;;;57.05;33.35;;;12.50;99.90;;;11.79;80.94;97485.06;5059469;28;20465;-78
2022/04/14 06:02:41;;;;;;;48.35;30.10;;;12.60;99.90;;;11.84;81.00;97493.84;5060835;28;20493;-80
2022/04/14 06:05:08;;;;;;;43.05;28.83;;;12.60;99.90;;;11.87;80.83;97495.19;5058960;28;20409;-82
2022/04/14 06:07:34;;;;;;;48.20;31.00;;;12.70;99.90;;;11.90;80.24;97492.81;5060190;28;20479;-82
2022/04/14 06:10:00;;;;;;;57.33;30.27;;;12.70;99.90;;;11.99;80.42;97495.78;5060821;28;20778;-81
2022/04/14 06:12:26;;;;;;;48.72;29.58;;;12.80;99.90;;;12.07;80.77;97497.16;5058746;28;20433;-81
2022/04/14 06:14:53;;;;;;;56.47;30.65;;;12.90;99.90;;;12.11;79.70;97500.88;5050449;28;21188;-76
2022/04/14 06:17:19;;;;;;;50.08;29.05;;;12.90;99.90;;;12.18;80.10;97504.91;5030056;28;20430;-78
2022/04/14 06:19:45;;;;;;;48.25;29.00;;;13.00;99.90;;;12.21;79.26;97509.69;5030516;28;20446;-78
2022/04/14 06:22:11;;;;;;;51.40;29.88;;;13.00;99.90;;;12.24;78.76;97508.41;5029579;28;20406;-77
2022/04/14 06:24:37;;;;;;;46.40;28.35;;;13.10;99.90;;;12.31;78.98;97511.63;5029988;28;20890;-77
2022/04/14 06:27:04;;;;;;;43.92;28.02;;;13.10;99.90;;;12.35;78.61;97516.13;5029926;28;20411;-79
2022/04/14 06:29:30;;;;;;;35.83;24.30;;;13.20;99.90;;;12.43;79.14;97516.69;5029906;28;20403;-79
2022/04/14 06:31:57;;;;;;;43.75;25.73;;;13.20;99.90;;;12.47;78.52;97515.94;5029976;28;20515;-82
2022/04/14 06:34:23;;;;;;;48.42;26.85;;;13.30;99.90;;;12.56;78.51;97516.22;5029422;28;20418;-77
2022/04/14 06:36:49;;;;;;;43.87;26.70;;;13.40;99.90;;;12.62;78.40;97509.88;5030136;28;20434;-77
2022/04/14 06:39:15;;;;;;;46.90;24.75;;;13.40;99.90;;;12.69;77.83;97507.78;5035473;28;21132;-75
2022/04/14 06:41:41;;;;;;;41.10;25.30;;;13.50;99.90;;;12.75;77.84;97507.53;5047511;28;20422;-75
2022/04/14 06:44:08;;;;;;;37.45;24.17;;;13.60;99.90;;;12.82;77.81;97509.94;5039968;28;20461;-76
2022/04/14 06:46:34;;;;;;;35.92;22.75;;;13.60;99.90;;;12.88;78.00;97511.53;5039692;28;20882;-81
2022/04/14 06:49:03;;;;;;;36.67;20.87;;;13.60;99.90;;;12.95;77.71;97520.06;5041376;28;20410;-78
2022/04/14 06:51:29;;;;;;;38.13;22.80;;;13.70;99.90;;;13.00;77.60;97516.63;5038893;28;20956;-77
2022/04/14 06:53:55;;;;;;;31.80;20.67;;;13.80;99.90;;;13.09;76.98;97509.72;5040847;28;20506;-78
2022/04/14 06:56:21;;;;;;;37.67;22.07;;;13.80;99.90;;;13.15;76.60;97522.00;5049300;28;20910;-78
2022/04/14 06:58:47;;;;;;;32.13;20.45;;;13.90;99.90;;;13.21;75.86;97512.97;5046773;28;20422;-78
2022/04/14 07:01:13;;;;;;;39.63;23.00;;;14.00;99.90;;;13.22;76.47;97519.06;5043926;28;20496;-78
2022/04/14 07:03:39;;;;;;;30.63;20.92;;;14.00;99.90;;;13.33;75.44;97518.00;5045820;28;20415;-77
2022/04/14 07:06:06;;;;;;;33.57;20.33;;;14.10;99.90;;;13.40;74.97;97521.19;5049930;28;20398;-76
2022/04/14 07:08:33;;;;;;;39.00;21.45;;;14.20;99.90;;;13.44;74.97;97522.28;5043559;28;20493;-77
2022/04/14 07:10:59;;;;;;;35.42;20.70;;;14.20;99.90;;;13.57;74.82;97524.41;5052851;28;21016;-77
2022/04/14 07:13:25;;;;;;;34.78;21.88;;;14.30;99.90;;;13.58;74.64;97526.00;5048863;28;20757;-77
2022/04/14 07:15:51;;;;;;;32.80;20.60;;;14.40;99.90;;;13.65;74.20;97533.72;5053537;28;20422;-77
2022/04/14 07:18:17;;;;;;;36.30;21.38;;;14.40;99.60;;;13.70;74.22;97536.38;5053806;28;20409;-76
2022/04/14 07:20:44;;;;;;;32.72;20.30;;;14.50;99.60;;;13.75;74.74;97531.06;5052836;28;20476;-79
2022/04/14 07:23:12;;;;;;;44.63;22.45;;;14.50;99.90;;;13.80;74.21;97529.19;5053787;28;20409;-77
2022/04/14 07:25:38;;;;;;;39.58;21.70;;;14.60;99.60;;;13.87;73.58;97531.56;5049337;28;20474;-77
2022/04/14 07:28:04;;;;;;;36.40;21.77;;;14.60;99.20;;;13.95;73.40;97531.81;5049631;28;20407;-77
2022/04/14 07:30:31;;;;;;;39.65;22.17;;;14.70;98.80;;;14.00;72.68;97524.88;5060802;28;20417;-76
2022/04/14 07:32:57;;;;;;;36.15;20.95;;;14.80;98.30;;;14.08;73.08;97530.47;5054157;28;20402;-76
2022/04/14 07:35:25;;;;;;;39.45;22.27;;;14.80;98.70;;;14.12;72.41;97544.03;5053022;28;20896;-78
2022/04/14 07:37:52;;;;;;;27.40;18.70;;;14.80;97.90;;;14.17;72.47;97541.34;5049999;28;20403;-78
2022/04/14 07:40:19;;;;;;;34.78;20.52;;;14.90;98.20;;;14.29;71.24;97540.00;5034937;28;20415;-77
2022/04/14 07:42:47;;;;;;;31.70;19.70;;;15.00;97.10;;;14.28;70.64;97543.72;5049331;28;20911;-79
2022/04/14 07:45:18;;;;;;;31.35;18.58;;;15.00;96.50;;;14.32;71.50;97544.78;5033586;28;20425;-80
2022/04/14 07:47:45;;;;;;;30.95;19.38;;;15.10;97.20;;;14.31;71.74;97548.50;5032912;28;20407;-79
2022/04/14 07:50:14;;;;;;;33.97;19.67;;;15.10;97.40;;;14.41;71.90;97546.94;5032256;28;20414;-80
2022/04/14 07:52:49;;;;;;;28.33;17.17;;;15.20;97.70;;;14.55;72.44;97551.41;5032575;28;20395;-78
2022/04/14 07:55:21;;;;;;;35.17;18.57;;;15.20;98.00;;;14.56;71.99;97561.00;5035573;28;20517;-80
2022/04/14 07:57:48;;;;;;;31.75;18.17;;;15.30;97.50;;;14.61;71.01;97552.16;5032953;28;20439;-80
2022/04/14 08:00:15;;;;;;;35.08;20.55;;;15.40;96.80;;;14.64;69.96;97552.44;5035937;28;20385;-79
2022/04/14 08:02:49;;;;;;;37.90;20.17;;;15.40;95.90;;;14.73;70.14;97554.53;5042220;28;20838;-83
2022/04/14 08:05:16;;;;;;;29.08;18.10;;;15.50;96.10;;;14.83;71.07;97560.59;5046563;28;20736;-80
2022/04/14 08:07:42;;;;;;;32.42;19.40;;;15.50;96.90;;;14.87;71.17;97563.53;5035148;28;20882;-83
2022/04/14 08:10:10;;;;;;;31.48;19.27;;;15.60;96.90;;;14.97;70.90;97566.13;5052716;28;20755;-87
2022/04/14 08:12:38;;;;;;;32.22;19.35;;;15.70;96.70;;;15.01;70.77;97567.19;5052504;28;20397;-78
2022/04/14 08:15:06;;;;;;;38.25;19.27;;;15.70;96.70;;;15.10;71.09;97566.34;5052618;28;20397;-79
2022/04/14 08:17:33;;;;;;;31.65;19.52;;;15.80;96.80;;;15.16;69.95;97567.09;5051973;28;20903;-76
2022/04/14 08:19:59;;;;;;;33.45;19.58;;;15.90;96.50;;;15.23;70.04;97569.47;5051848;28;20413;-77
2022/04/14 08:22:25;;;;;;;26.20;15.05;;;15.90;96.00;;;15.32;70.26;97573.16;5051644;28;20455;-77
2022/04/14 08:24:51;;;;;;;29.92;17.90;;;16.00;96.10;;;15.32;69.45;97570.47;5052253;28;20903;-83
2022/04/14 08:27:18;;;;;;;30.55;18.15;;;16.00;95.60;;;15.38;68.64;97572.84;5046267;28;20413;-76
2022/04/14 08:29:45;;;;;;;32.00;18.60;;;16.10;94.90;;;15.44;68.76;97571.72;5044624;28;20407;-80
2022/04/14 08:32:11;;;;;;;35.25;18.65;;;16.20;95.00;;;15.45;68.86;97573.31;5041400;28;20485;-80
2022/04/14 08:34:37;;;;;;;31.47;17.93;;;16.20;94.80;;;15.50;69.74;97573.28;5024615;28;20418;-80
2022/04/14 08:37:04;;;;;;;29.48;17.08;;;16.20;95.60;;;15.54;69.67;97570.91;5052116;28;20405;-78
2022/04/14 08:39:32;;;;;;;29.25;18.60;;;16.20;95.60;;;15.58;69.38;97568.44;5051294;28;20408;-77
2022/04/14 08:42:12;;;;;;;35.28;17.85;;;16.30;95.20;;;15.64;69.45;97573.47;5050737;28;20408;-78
2022/04/14 08:44:47;;;;;;;33.80;18.42;;;16.30;95.40;;;15.66;69.08;97566.00;5051751;28;20409;-79
2022/04/14 08:47:16;;;;;;;24.25;15.10;;;16.40;95.10;;;15.79;69.36;97564.53;5031525;28;20406;-79
2022/04/14 08:49:45;;;;;;;26.52;17.00;;;16.40;95.30;;;15.76;68.34;97563.25;5031394;28;21205;-77
2022/04/14 08:52:15;;;;;;;24.15;16.17;;;16.50;94.50;;;15.79;68.74;97567.22;5047392;28;20410;-80
2022/04/14 08:54:44;;;;;;;30.25;16.70;;;16.50;94.70;;;15.85;69.06;97574.91;5051748;28;20459;-79
2022/04/14 08:57:13;;;;;;;29.80;16.33;;;16.50;95.00;;;15.90;68.90;97571.41;5034019;28;20416;-82
2022/04/14 08:59:42;;;;;;;31.92;17.45;;;16.60;95.00;;;15.90;67.87;97574.06;5052337;28;20410;-80
2022/04/14 09:02:16;;;;;;;33.58;17.17;;;16.60;94.00;;;15.98;68.47;97570.78;5051682;28;20393;-79
2022/04/14 09:04:43;;;;;;;32.40;18.00;;;16.70;94.40;;;16.05;67.43;97573.94;5051446;28;20891;-80
2022/04/14 09:07:10;;;;;;;37.45;18.27;;;16.70;93.60;;;16.03;65.08;97573.41;5050933;28;20409;-80
2022/04/14 09:09:36;;;;;;;30.20;16.93;;;16.70;91.50;;;16.06;64.01;97567.53;5050992;28;20545;-77
2022/04/14 09:12:02;;;;;;;28.73;16.00;;;16.80;90.90;;;16.11;65.09;97572.00;5050308;28;20413;-78
2022/04/14 09:14:31;;;;;;;26.17;17.13;;;16.80;91.70;;;16.26;64.82;97578.00;5051107;28;20423;-77
2022/04/14 09:16:57;;;;;;;24.13;15.13;;;16.90;91.90;;;16.26;64.88;97575.31;5051381;28;20818;-78
2022/04/14 09:19:28;;;;;;;30.08;16.23;;;17.00;91.50;;;16.32;65.21;97570.72;5044922;28;20441;-77
2022/04/14 09:21:58;;;;;;;25.90;15.82;;;17.00;91.90;;;16.36;65.76;97579.78;5050975;28;20388;-80
2022/04/14 09:24:42;;;;;;;26.10;15.45;;;17.00;92.00;;;16.45;65.40;97580.75;5051495;28;20526;-81
2022/04/14 09:27:22;;;;;;;29.52;15.48;;;17.10;91.80;;;16.50;65.29;97577.22;5051663;28;20405;-79
2022/04/14 09:29:48;;;;;;;27.67;15.95;;;17.20;91.70;;;16.68;64.74;97578.41;5050921;28;20751;-78
2022/04/14 09:32:30;;;;;;;22.88;14.48;;;17.30;91.40;;;16.72;65.38;97577.53;5050705;28;20491;-78
2022/04/14 09:34:59;;;;;;;30.98;16.33;;;17.40;91.70;;;16.86;64.58;97589.13;5051399;28;20393;-78
2022/04/14 09:37:27;;;;;;;29.00;16.73;;;17.50;91.20;;;16.89;63.25;97588.56;5051371;28;20523;-78
2022/04/14 09:39:55;;;;;;;33.37;17.97;;;17.60;90.00;;;16.79;62.87;97585.19;5051041;28;20433;-77
2022/04/14 09:42:23;;;;;;;22.20;13.73;;;17.40;88.70;;;16.90;63.28;97579.47;5050969;28;20401;-81
2022/04/14 09:44:51;;;;;;;27.65;16.38;;;17.50;90.10;;;16.88;63.26;97589.63;5051894;28;20514;-79
2022/04/14 09:47:41;;;;;;;30.38;15.35;;;17.60;90.40;;;16.96;63.35;97583.66;5034504;28;20782;-78
2022/04/14 09:50:26;;;;;;;21.05;12.63;;;17.60;90.20;;;17.14;63.58;97584.75;5051751;28;20402;-78
2022/04/14 09:53:05;;;;;;;28.75;15.07;;;17.80;90.20;;;17.27;63.49;97584.03;5051239;28;20402;-77
2022/04/14 09:55:32;;;;;;;24.97;14.07;;;17.90;90.20;;;17.32;62.54;97583.97;5052094;28;20409;-78
2022/04/14 09:58:14;;;;;;;26.35;15.05;;;18.00;89.10;;;17.46;63.52;97581.34;5052406;28;20440;-77
2022/04/14 10:00:43;;;;;;;20.83;12.70;;;18.00;90.10;;;17.69;63.40;97575.16;5051510;28;20393;-78
2022/04/14 10:03:12;;;;;;;21.52;13.13;;;18.30;90.30;;;17.78;63.69;97576.06;5034584;28;20484;-78
2022/04/14 10:05:40;;;;;;;27.42;15.32;;;18.40;90.10;;;17.94;61.37;97570.47;5052880;28;20444;-78
2022/04/14 10:08:08;;;;;;;25.83;14.25;;;18.60;87.20;;;18.02;62.13;97573.28;5051539;28;20883;-78